Time;durP1;ratioP1;P1;durP2;ratioP2;P2;SDS_P1;SDS_P2;PMS_P1;PMS_P2;Temp;Humidity;BMP_temperature;BMP_pressure;BME280_temperature;BME280_humidity;BME280_pressure;Samples;Min_cycle;Max_cycle;Signal;HPM_P1;HPM_P2
2022/01/23 00:00:20;;;;;;;13.60;3.80;;;9.00;99.90;;;;;;5062556;28;20474;-70
2022/01/23 00:02:50;;;;;;;13.50;3.50;;;9.00;99.90;;;;;;5042058;28;20064;-71
2022/01/23 00:05:18;;;;;;;11.45;3.30;;;9.00;99.90;;;;;;5056584;28;20040;-71
2022/01/23 00:07:45;;;;;;;8.88;3.50;;;9.00;99.90;;;;;;5040682;28;20031;-71
2022/01/23 00:10:11;;;;;;;14.88;3.67;;;9.00;99.90;;;;;;5064780;28;20077;-71
2022/01/23 00:12:47;;;;;;;15.85;4.03;;;9.00;99.90;;;;;;5052822;28;20044;-70
2022/01/23 00:17:57;;;;;;;17.73;4.13;;;9.00;99.90;;;;;;5065143;28;20044;-71
2022/01/23 00:20:23;;;;;;;15.25;4.07;;;9.10;99.90;;;;;;5037734;28;20048;-70
2022/01/23 00:22:54;;;;;;;15.80;3.45;;;9.00;99.90;;;;;;5045675;28;20033;-71
2022/01/23 00:30:54;;;;;;;14.20;3.65;;;9.10;99.90;;;;;;5060656;28;20491;-71
2022/01/23 00:33:20;;;;;;;13.43;3.70;;;9.10;99.90;;;;;;5071187;28;20098;-71
2022/01/23 00:35:47;;;;;;;14.70;3.90;;;9.10;99.90;;;;;;5046854;28;20032;-71
2022/01/23 00:38:17;;;;;;;12.00;3.95;;;9.10;99.90;;;;;;5072786;28;20043;-71
2022/01/23 00:40:45;;;;;;;13.18;3.58;;;9.10;99.90;;;;;;5055476;28;20382;-71
2022/01/23 00:43:25;;;;;;;13.73;3.88;;;9.10;99.90;;;;;;5059289;28;20029;-71
2022/01/23 00:45:56;;;;;;;11.55;3.25;;;9.10;99.90;;;;;;5062225;28;20404;-71
2022/01/23 00:48:27;;;;;;;10.80;3.60;;;9.10;99.90;;;;;;5065943;28;20041;-71
2022/01/23 00:50:53;;;;;;;12.80;3.42;;;9.10;99.90;;;;;;5065293;28;20024;-71
2022/01/23 00:53:19;;;;;;;12.93;3.25;;;9.10;99.90;;;;;;5071703;28;20036;-71
2022/01/23 00:55:46;;;;;;;7.90;3.30;;;9.10;99.90;;;;;;5069214;28;20037;-71
2022/01/23 00:58:13;;;;;;;10.70;3.33;;;9.10;99.90;;;;;;5059006;28;20052;-69
2022/01/23 01:00:40;;;;;;;12.75;3.10;;;9.10;99.90;;;;;;5060277;28;20405;-73
2022/01/23 01:03:06;;;;;;;8.43;3.15;;;9.20;99.90;;;;;;5070237;28;20029;-73
2022/01/23 01:05:32;;;;;;;10.82;3.28;;;9.20;99.90;;;;;;5070182;28;20106;-73
2022/01/23 01:08:00;;;;;;;13.07;3.85;;;9.20;99.90;;;;;;5061267;28;20056;-74
2022/01/23 01:10:35;;;;;;;13.90;3.35;;;9.10;99.90;;;;;;5059306;28;20036;-73
2022/01/23 01:13:02;;;;;;;12.88;3.78;;;9.20;99.90;;;;;;5070491;28;20051;-72
2022/01/23 01:32:00;;;;;;;10.93;3.10;;;9.10;99.90;;;;;;5060564;28;20043;-71
2022/01/23 01:37:01;;;;;;;9.82;2.85;;;9.10;99.90;;;;;;5058915;28;20033;-70
2022/01/23 01:39:28;;;;;;;13.98;3.22;;;9.10;99.90;;;;;;5072121;28;20032;-71
2022/01/23 01:41:55;;;;;;;10.80;3.03;;;9.10;99.90;;;;;;5068760;28;20473;-72
2022/01/23 01:44:24;;;;;;;10.32;3.03;;;9.10;99.90;;;;;;5056195;28;20493;-70
2022/01/23 01:46:51;;;;;;;9.57;2.95;;;9.10;99.90;;;;;;5060694;28;20033;-70
2022/01/23 01:49:26;;;;;;;15.02;3.80;;;9.10;99.90;;;;;;5070505;28;20490;-71
2022/01/23 01:51:53;;;;;;;10.50;3.30;;;9.10;99.90;;;;;;5052944;28;20047;-70
2022/01/23 01:54:20;;;;;;;12.60;3.88;;;9.10;99.90;;;;;;5046292;28;20470;-71
2022/01/23 01:56:52;;;;;;;9.55;3.30;;;9.10;99.90;;;;;;5061222;28;20557;-71
2022/01/23 02:10:04;;;;;;;7.15;2.72;;;9.10;99.90;;;;;;5054708;28;20044;-71
2022/01/23 02:15:41;;;;;;;15.02;3.05;;;9.20;99.90;;;;;;5057238;28;20440;-71
2022/01/23 02:18:19;;;;;;;11.80;2.55;;;9.10;99.90;;;;;;5063300;28;20480;-70
2022/01/23 02:50:45;;;;;;;16.58;3.70;;;9.10;99.90;;;;;;5064912;28;20789;-70
2022/01/23 02:53:41;;;;;;;15.48;4.10;;;9.10;99.90;;;;;;5066079;28;20041;-70
2022/01/23 02:56:20;;;;;;;13.10;3.03;;;9.10;99.90;;;;;;5066306;28;20054;-70
2022/01/23 02:58:58;;;;;;;9.68;3.30;;;9.10;99.90;;;;;;5056718;28;20020;-70
2022/01/23 03:01:28;;;;;;;10.60;3.60;;;9.10;99.90;;;;;;5063665;28;20028;-70
2022/01/23 03:04:00;;;;;;;16.67;4.53;;;9.10;99.90;;;;;;5060543;28;20021;-70
2022/01/23 03:14:36;;;;;;;14.13;4.93;;;9.10;99.90;;;;;;5068862;28;20114;-70
2022/01/23 03:30:37;;;;;;;16.88;4.40;;;9.10;99.90;;;;;;5064619;28;20040;-69
2022/01/23 03:33:01;;;;;;;16.48;4.82;;;9.10;99.90;;;;;;5062913;28;20110;-72
2022/01/23 03:35:27;;;;;;;14.70;4.68;;;9.10;99.90;;;;;;5059523;28;20516;-70
2022/01/23 03:37:53;;;;;;;14.70;4.85;;;9.10;99.90;;;;;;5049317;28;20385;-72
2022/01/23 03:40:19;;;;;;;17.63;4.90;;;9.10;99.90;;;;;;5047608;28;20020;-71
2022/01/23 03:42:48;;;;;;;16.10;4.93;;;9.10;99.90;;;;;;5065629;28;20029;-72
2022/01/23 03:50:42;;;;;;;17.67;4.50;;;9.10;99.90;;;;;;5059883;28;20041;-71
2022/01/23 03:53:08;;;;;;;14.70;4.38;;;9.10;99.90;;;;;;5058290;28;20024;-69
2022/01/23 03:55:34;;;;;;;15.65;5.30;;;9.10;99.90;;;;;;5069194;28;20037;-71
2022/01/23 03:57:59;;;;;;;14.50;4.97;;;9.20;99.90;;;;;;5060759;28;20116;-73
2022/01/23 04:00:25;;;;;;;18.33;4.93;;;9.20;99.90;;;;;;5052294;28;20056;-72
2022/01/23 04:02:51;;;;;;;16.50;5.50;;;9.20;99.90;;;;;;5053949;28;20020;-70
2022/01/23 04:05:17;;;;;;;24.35;6.00;;;9.20;99.90;;;;;;5056048;28;20021;-73
2022/01/23 04:07:43;;;;;;;17.13;4.97;;;9.20;99.90;;;;;;5061996;28;20036;-71
2022/01/23 04:10:12;;;;;;;13.60;4.78;;;9.20;99.90;;;;;;5065627;28;20025;-72
2022/01/23 05:01:31;;;;;;;13.02;5.22;;;9.30;99.90;;;;;;5068628;28;20504;-71
2022/01/23 05:06:58;;;;;;;18.95;5.65;;;9.30;99.90;;;;;;5060575;28;20033;-72
2022/01/23 05:09:23;;;;;;;17.15;4.75;;;9.30;99.90;;;;;;5067685;28;20037;-71
2022/01/23 05:11:53;;;;;;;13.43;4.78;;;9.30;99.90;;;;;;5057030;28;20082;-71
2022/01/23 05:14:26;;;;;;;18.75;5.10;;;9.30;99.90;;;;;;5067505;28;20041;-71
2022/01/23 05:16:51;;;;;;;17.30;5.32;;;9.30;99.90;;;;;;5069431;28;20028;-71
2022/01/23 05:19:17;;;;;;;15.35;5.18;;;9.40;99.90;;;;;;5058727;28;20029;-71
2022/01/23 05:24:08;;;;;;;18.02;5.18;;;9.30;99.90;;;;;;5056602;28;20037;-72
2022/01/23 05:26:42;;;;;;;16.63;5.55;;;9.30;99.90;;;;;;5066364;28;20028;-72
2022/01/23 05:29:08;;;;;;;13.52;4.40;;;9.30;99.90;;;;;;5041179;28;20124;-73
2022/01/23 05:31:33;;;;;;;19.48;5.25;;;9.30;99.90;;;;;;5071376;28;20124;-72
2022/01/23 05:33:59;;;;;;;18.13;5.30;;;9.30;99.90;;;;;;5068840;28;20470;-69
2022/01/23 05:36:24;;;;;;;14.27;5.25;;;9.30;99.90;;;;;;5064195;28;20032;-71
2022/01/23 05:38:50;;;;;;;17.70;5.10;;;9.30;99.90;;;;;;5068589;28;20093;-71
2022/01/23 05:41:16;;;;;;;15.50;5.53;;;9.30;99.90;;;;;;5059060;28;20025;-71
2022/01/23 05:43:41;;;;;;;15.73;4.88;;;9.30;99.90;;;;;;5069485;28;20062;-71
2022/01/23 05:46:07;;;;;;;12.48;4.82;;;9.30;99.90;;;;;;5044516;28;20089;-71
2022/01/23 05:48:32;;;;;;;15.57;4.50;;;9.30;99.90;;;;;;5063163;28;20045;-71
2022/01/23 05:50:58;;;;;;;14.15;5.15;;;9.30;99.90;;;;;;5069501;28;20016;-71
2022/01/23 05:53:24;;;;;;;12.73;4.35;;;9.30;99.90;;;;;;5057405;28;20474;-71
2022/01/23 05:55:49;;;;;;;17.30;4.78;;;9.30;99.90;;;;;;5068505;28;20144;-70
2022/01/23 05:58:15;;;;;;;14.95;4.93;;;9.30;99.90;;;;;;5063804;28;20036;-71
2022/01/23 06:00:40;;;;;;;15.82;4.63;;;9.30;99.90;;;;;;5067178;28;20054;-70
2022/01/23 06:03:06;;;;;;;11.65;4.25;;;9.30;99.90;;;;;;5059049;28;20021;-71
2022/01/23 06:05:32;;;;;;;15.40;4.35;;;9.30;99.90;;;;;;5052934;28;20036;-71
2022/01/23 06:07:57;;;;;;;16.77;4.50;;;9.30;99.90;;;;;;5060601;28;20369;-70
2022/01/23 06:10:26;;;;;;;13.52;4.20;;;9.30;99.90;;;;;;5062826;28;20057;-70
2022/01/23 06:12:51;;;;;;;19.42;5.10;;;9.30;99.90;;;;;;5068146;28;20044;-71
2022/01/23 06:15:18;;;;;;;13.70;4.50;;;9.30;99.90;;;;;;5065652;28;20066;-71
2022/01/23 06:17:44;;;;;;;16.60;4.55;;;9.30;99.90;;;;;;5060986;28;20047;-71
2022/01/23 06:20:12;;;;;;;15.27;4.93;;;9.30;99.90;;;;;;5061995;28;20091;-72
2022/01/23 06:22:38;;;;;;;14.25;5.43;;;9.30;99.90;;;;;;5061556;28;20067;-71
2022/01/23 06:25:07;;;;;;;15.30;4.70;;;9.40;99.90;;;;;;5062230;28;20474;-71
2022/01/23 06:27:33;;;;;;;19.20;5.70;;;9.30;99.90;;;;;;5061753;28;20032;-70
2022/01/23 06:29:59;;;;;;;13.88;5.00;;;9.30;99.90;;;;;;5061234;28;20033;-70
2022/01/23 06:32:25;;;;;;;21.65;6.75;;;9.30;99.90;;;;;;5062836;28;20028;-71
2022/01/23 06:34:51;;;;;;;16.20;5.13;;;9.30;99.90;;;;;;5061638;28;20025;-70
2022/01/23 06:37:17;;;;;;;14.93;4.15;;;9.40;99.90;;;;;;5062177;28;20040;-71
2022/01/23 06:39:43;;;;;;;15.80;4.93;;;9.30;99.90;;;;;;5062458;28;20397;-71
2022/01/23 06:42:09;;;;;;;18.17;4.68;;;9.30;99.90;;;;;;5058784;28;20025;-71
2022/01/23 06:44:36;;;;;;;17.75;4.38;;;9.30;99.90;;;;;;5060893;28;20101;-71
2022/01/23 06:47:02;;;;;;;16.38;4.35;;;9.30;99.90;;;;;;5062584;28;20020;-70
2022/01/23 06:49:28;;;;;;;13.35;4.60;;;9.30;99.90;;;;;;5063202;28;20470;-71
2022/01/23 06:51:54;;;;;;;14.40;4.72;;;9.30;99.90;;;;;;5058854;28;20122;-71
2022/01/23 06:54:19;;;;;;;15.82;6.55;;;9.30;99.90;;;;;;5064393;28;20029;-71
2022/01/23 06:56:46;;;;;;;12.63;4.88;;;9.30;99.90;;;;;;5052030;28;20442;-71
2022/01/23 06:59:12;;;;;;;16.45;4.80;;;9.30;99.90;;;;;;5056069;28;20044;-71
2022/01/23 07:01:37;;;;;;;14.85;5.25;;;9.30;99.90;;;;;;5069555;28;20039;-71
2022/01/23 07:04:03;;;;;;;18.90;5.43;;;9.30;99.90;;;;;;5042607;28;20028;-71
2022/01/23 07:06:29;;;;;;;17.85;6.05;;;9.30;99.90;;;;;;5060791;28;20040;-71
2022/01/23 07:08:54;;;;;;;16.33;5.68;;;9.30;99.90;;;;;;5049705;28;20024;-71
2022/01/23 07:11:20;;;;;;;17.10;6.78;;;9.30;99.90;;;;;;5056216;28;20061;-71
2022/01/23 07:13:45;;;;;;;18.38;6.80;;;9.30;99.90;;;;;;5068424;28;20041;-71
2022/01/23 07:16:11;;;;;;;23.17;6.57;;;9.30;99.90;;;;;;5061370;28;20105;-71
2022/01/23 07:18:36;;;;;;;22.52;7.55;;;9.30;99.90;;;;;;5060721;28;20060;-71
2022/01/23 07:21:03;;;;;;;22.05;7.72;;;9.20;99.90;;;;;;5067421;28;20099;-71
2022/01/23 07:23:28;;;;;;;21.80;7.35;;;9.20;99.90;;;;;;5062249;28;20120;-71
2022/01/23 07:25:54;;;;;;;209.85;24.05;;;9.10;99.90;;;;;;5048928;28;20056;-71
2022/01/23 07:28:22;;;;;;;19.95;7.88;;;9.10;99.90;;;;;;5057320;28;20028;-71
2022/01/23 07:30:54;;;;;;;20.33;7.10;;;9.10;99.90;;;;;;5059815;28;20478;-71
2022/01/23 07:33:20;;;;;;;20.77;7.40;;;9.00;99.90;;;;;;5061528;28;20131;-71
2022/01/23 07:35:47;;;;;;;23.88;7.30;;;8.90;99.90;;;;;;5061818;28;20113;-71
2022/01/23 07:38:16;;;;;;;18.92;7.50;;;8.90;99.90;;;;;;5061484;28;20031;-71
2022/01/23 07:40:44;;;;;;;23.92;7.85;;;8.90;99.90;;;;;;5067612;28;20140;-71
2022/01/23 07:43:10;;;;;;;18.20;6.93;;;8.90;99.90;;;;;;5068429;28;20036;-71
2022/01/23 07:45:35;;;;;;;21.27;8.68;;;8.90;99.90;;;;;;5053671;28;20040;-71
2022/01/23 07:48:01;;;;;;;20.63;7.57;;;8.90;99.90;;;;;;5052612;28;20060;-71
2022/01/23 07:50:26;;;;;;;20.70;7.32;;;8.80;99.90;;;;;;5063145;28;20036;-71
2022/01/23 07:52:52;;;;;;;22.70;8.07;;;8.80;99.90;;;;;;5058234;28;20541;-71
2022/01/23 07:55:18;;;;;;;27.50;8.50;;;8.80;99.90;;;;;;5068796;28;20028;-71
2022/01/23 07:57:44;;;;;;;16.65;8.00;;;8.70;99.90;;;;;;5064681;28;20104;-71
2022/01/23 08:00:12;;;;;;;22.27;8.00;;;8.70;99.90;;;;;;5069581;28;20024;-71
2022/01/23 08:02:38;;;;;;;22.17;8.32;;;8.70;99.90;;;;;;5056167;28;20082;-71
2022/01/23 08:05:05;;;;;;;25.73;8.93;;;8.70;99.90;;;;;;5068180;28;20103;-71
2022/01/23 08:07:31;;;;;;;25.50;9.18;;;8.80;99.90;;;;;;5055326;28;20486;-71
2022/01/23 08:09:58;;;;;;;24.77;9.25;;;8.80;99.90;;;;;;5064745;28;20040;-71
2022/01/23 08:12:24;;;;;;;21.27;8.38;;;8.80;99.90;;;;;;5039907;28;20089;-71
2022/01/23 08:14:50;;;;;;;24.35;9.18;;;8.90;99.90;;;;;;5063181;28;20470;-71
2022/01/23 08:17:16;;;;;;;20.90;8.82;;;9.00;99.90;;;;;;5058497;28;20021;-71
2022/01/23 08:19:42;;;;;;;23.00;8.48;;;9.00;99.90;;;;;;5060082;28;20040;-71
2022/01/23 08:22:08;;;;;;;26.42;8.80;;;9.00;99.90;;;;;;5062164;28;20379;-71
2022/01/23 08:24:33;;;;;;;20.38;7.85;;;9.00;99.90;;;;;;5058720;28;20369;-71
2022/01/23 08:26:59;;;;;;;20.08;9.30;;;9.00;99.90;;;;;;5060460;28;20021;-71
2022/01/23 08:29:25;;;;;;;24.75;8.75;;;9.10;99.90;;;;;;5039657;28;20043;-71
2022/01/23 08:31:51;;;;;;;26.70;9.73;;;9.10;99.90;;;;;;5056635;28;20082;-71
2022/01/23 08:34:17;;;;;;;18.88;8.20;;;9.10;99.90;;;;;;5062884;28;20028;-71
2022/01/23 08:36:42;;;;;;;19.75;8.73;;;9.10;99.90;;;;;;5058201;28;20104;-71
2022/01/23 08:39:08;;;;;;;27.33;10.43;;;9.20;99.90;;;;;;5060387;28;20029;-71
2022/01/23 08:41:49;;;;;;;26.13;10.05;;;9.20;99.90;;;;;;5039760;28;20028;-71
2022/01/23 08:44:16;;;;;;;22.50;8.35;;;9.20;99.90;;;;;;5060427;28;20021;-73
2022/01/23 08:46:42;;;;;;;22.23;9.45;;;9.20;99.90;;;;;;5057950;28;20040;-71
2022/01/23 08:49:08;;;;;;;21.02;8.32;;;9.20;99.90;;;;;;5062344;28;20044;-71
2022/01/23 08:51:33;;;;;;;25.15;9.52;;;9.20;99.90;;;;;;5062471;28;20051;-70
2022/01/23 08:53:59;;;;;;;24.27;9.02;;;9.30;99.90;;;;;;5064270;28;20021;-73
2022/01/23 08:56:26;;;;;;;23.45;9.02;;;9.30;99.90;;;;;;5066220;28;20458;-70
2022/01/23 08:58:51;;;;;;;22.38;8.88;;;9.40;99.90;;;;;;5064579;28;20056;-71
2022/01/23 09:01:17;;;;;;;22.10;8.43;;;9.50;99.90;;;;;;5063449;28;20529;-70
2022/01/23 09:03:42;;;;;;;22.45;8.95;;;9.60;99.90;;;;;;5064307;28;20078;-70
2022/01/23 09:06:08;;;;;;;22.45;8.55;;;9.70;99.90;;;;;;5064990;28;20017;-70
2022/01/23 09:08:37;;;;;;;22.20;9.30;;;9.70;99.90;;;;;;5055560;28;20540;-73
2022/01/23 09:11:09;;;;;;;27.70;9.65;;;9.70;99.90;;;;;;5055509;28;20081;-71
2022/01/23 09:16:16;;;;;;;21.15;10.10;;;9.60;99.90;;;;;;5061086;28;20103;-73
2022/01/23 09:18:42;;;;;;;21.88;9.68;;;9.70;99.90;;;;;;5037442;28;20199;-70
2022/01/23 09:21:08;;;;;;;21.17;9.15;;;9.70;99.90;;;;;;5055046;28;20086;-71
2022/01/23 09:23:34;;;;;;;24.42;11.90;;;9.70;99.90;;;;;;5054987;28;20104;-73
2022/01/23 09:26:07;;;;;;;26.48;11.23;;;9.70;99.90;;;;;;5062753;28;20072;-70
2022/01/23 09:28:33;;;;;;;25.67;8.55;;;9.70;99.90;;;;;;5061524;28;20025;-70
2022/01/23 09:31:00;;;;;;;21.60;9.30;;;9.70;99.90;;;;;;5062349;28;20031;-70
2022/01/23 09:33:27;;;;;;;27.90;10.23;;;9.70;99.90;;;;;;5061246;28;20037;-73
2022/01/23 09:35:53;;;;;;;22.70;10.30;;;9.70;99.90;;;;;;5067467;28;20043;-70
2022/01/23 09:38:19;;;;;;;29.13;9.77;;;9.80;99.90;;;;;;5057794;28;20037;-73
2022/01/23 09:40:49;;;;;;;27.63;10.38;;;9.80;99.90;;;;;;5069933;28;20040;-70
2022/01/23 09:43:19;;;;;;;21.77;9.32;;;9.90;99.90;;;;;;5062832;28;20016;-73
2022/01/23 09:45:48;;;;;;;24.05;9.75;;;9.90;99.90;;;;;;5045646;28;20063;-73
2022/01/23 09:48:18;;;;;;;23.58;8.98;;;9.90;99.90;;;;;;5066461;28;20433;-70
2022/01/23 09:50:46;;;;;;;26.48;9.85;;;9.90;99.90;;;;;;5066870;28;20330;-71
2022/01/23 09:53:14;;;;;;;23.77;9.63;;;9.90;99.90;;;;;;5049539;28;20053;-71
2022/01/23 09:55:44;;;;;;;24.05;10.07;;;9.90;99.90;;;;;;5060615;28;20090;-73
2022/01/23 09:58:11;;;;;;;23.73;10.00;;;10.00;99.90;;;;;;5058099;28;20382;-71
2022/01/23 10:00:37;;;;;;;21.77;9.80;;;10.00;99.90;;;;;;5057829;28;20129;-73
2022/01/23 10:03:03;;;;;;;22.73;10.02;;;10.10;99.90;;;;;;5056353;28;20111;-71
2022/01/23 10:05:29;;;;;;;25.27;10.55;;;10.10;99.90;;;;;;5063963;28;20029;-72
2022/01/23 10:07:55;;;;;;;24.48;9.57;;;10.20;99.90;;;;;;5035755;28;20025;-73
2022/01/23 10:10:26;;;;;;;22.27;9.63;;;10.30;99.90;;;;;;5050665;28;20032;-72
2022/01/23 10:12:56;;;;;;;22.38;9.52;;;10.30;99.90;;;;;;5053217;28;20043;-73
2022/01/23 10:15:27;;;;;;;20.05;9.07;;;10.30;99.90;;;;;;5053306;28;20036;-72
2022/01/23 10:17:56;;;;;;;23.83;9.80;;;10.40;99.90;;;;;;5041149;28;20843;-70
2022/01/23 10:20:22;;;;;;;24.67;10.05;;;10.40;99.90;;;;;;5058414;28;20032;-70
2022/01/23 10:22:51;;;;;;;22.45;9.05;;;10.40;99.90;;;;;;5061770;28;20069;-72
2022/01/23 10:25:19;;;;;;;19.35;8.45;;;10.50;99.90;;;;;;5055968;28;20029;-74
2022/01/23 10:28:06;;;;;;;19.30;8.48;;;10.50;99.90;;;;;;5060281;28;20043;-71
2022/01/23 10:30:38;;;;;;;25.48;9.05;;;10.40;99.90;;;;;;5064656;28;20060;-72
2022/01/23 10:33:18;;;;;;;;;;;10.30;99.90;;;;;;5073820;28;20044;-70
2022/01/23 10:35:56;;;;;;;21.77;9.30;;;10.30;99.90;;;;;;5061931;28;19908;-70
2022/01/23 10:38:23;;;;;;;20.13;8.90;;;10.40;99.90;;;;;;5053855;28;20087;-71
2022/01/23 10:40:56;;;;;;;22.23;9.15;;;10.50;99.90;;;;;;5035895;28;20060;-74
2022/01/23 10:48:35;;;;;;;19.60;8.10;;;10.60;99.90;;;;;;5073167;28;20079;-69
2022/01/23 10:51:19;;;;;;;19.52;8.55;;;10.70;99.90;;;;;;5056118;28;20097;-70
2022/01/23 10:53:59;;;;;;;18.92;8.90;;;10.80;99.90;;;;;;5052999;28;20055;-70
2022/01/23 10:56:27;;;;;;;25.33;9.57;;;10.90;99.90;;;;;;5052347;28;20382;-70
2022/01/23 10:59:07;;;;;;;20.48;8.38;;;11.00;99.90;;;;;;5053115;28;20064;-73
2022/01/23 11:01:33;;;;;;;19.58;8.20;;;11.00;99.90;;;;;;5061014;28;20036;-71
2022/01/23 11:04:12;;;;;;;22.45;9.45;;;11.00;99.90;;;;;;5058671;28;20375;-72
2022/01/23 11:07:02;;;;;;;22.30;9.15;;;11.00;99.90;;;;;;5054480;28;20075;-70
2022/01/23 11:09:33;;;;;;;26.27;9.52;;;11.10;99.90;;;;;;5065286;28;20510;-70
2022/01/23 11:12:45;;;;;;;21.27;9.63;;;11.20;99.90;;;;;;5037040;28;20044;-71
2022/01/23 11:17:51;;;;;;;19.75;7.22;;;11.40;99.90;;;;;;5058853;28;20027;-73
2022/01/23 11:20:33;;;;;;;21.77;7.93;;;11.40;99.90;;;;;;5064616;28;20031;-69
2022/01/23 11:23:03;;;;;;;;;;;11.50;99.90;;;;;;5056550;28;20021;-72
2022/01/23 11:25:28;;;;;;;16.65;6.43;;;11.60;99.90;;;;;;5061983;28;19912;-73
2022/01/23 11:28:02;;;;;;;19.75;6.95;;;11.50;99.90;;;;;;5054895;28;20036;-71
2022/01/23 11:30:48;;;;;;;17.83;6.43;;;11.50;99.90;;;;;;5059229;28;20028;-71
2022/01/23 11:33:19;;;;;;;15.20;6.47;;;11.50;99.90;;;;;;5065747;28;20173;-71
2022/01/23 11:35:46;;;;;;;19.70;5.97;;;11.50;99.90;;;;;;5062753;28;20025;-73
2022/01/23 11:38:17;;;;;;;17.35;6.95;;;11.50;99.90;;;;;;5056488;28;20043;-72
2022/01/23 11:54:51;;;;;;;20.00;6.63;;;11.30;99.90;;;;;;5069001;28;20404;-71
2022/01/23 11:57:45;;;;;;;18.00;6.40;;;11.30;99.90;;;;;;5058376;28;20537;-71
2022/01/23 12:00:12;;;;;;;17.42;6.68;;;11.30;99.90;;;;;;5067554;28;20488;-71
2022/01/23 12:02:43;;;;;;;20.55;7.05;;;11.30;99.90;;;;;;5062138;28;20043;-71
2022/01/23 12:05:16;;;;;;;20.63;7.18;;;11.20;99.90;;;;;;5057783;28;20523;-70
2022/01/23 12:07:44;;;;;;;18.67;7.50;;;11.20;99.90;;;;;;5067361;28;20461;-71
2022/01/23 12:10:30;;;;;;;16.38;7.05;;;11.20;99.90;;;;;;5056187;28;20029;-71
2022/01/23 12:13:55;;;;;;;19.77;7.07;;;11.30;99.90;;;;;;5058548;28;20063;-69
2022/01/23 12:18:51;;;;;;;19.95;8.10;;;11.20;99.90;;;;;;5054619;28;20016;-70
2022/01/23 12:21:30;;;;;;;17.40;6.60;;;11.20;99.90;;;;;;5060234;28;20032;-69
2022/01/23 12:24:02;;;;;;;16.08;6.78;;;11.20;99.90;;;;;;5054274;28;20025;-69
2022/01/23 12:26:28;;;;;;;17.25;7.50;;;11.30;99.90;;;;;;5074086;28;20027;-69
2022/01/23 12:28:54;;;;;;;15.75;6.82;;;11.30;99.90;;;;;;5047081;28;20112;-69
2022/01/23 12:31:23;;;;;;;17.60;7.07;;;11.30;99.90;;;;;;5076129;28;20413;-69
2022/01/23 12:33:57;;;;;;;19.30;7.00;;;11.20;99.90;;;;;;5076484;28;20029;-69
2022/01/23 12:36:28;;;;;;;15.43;6.40;;;11.30;99.90;;;;;;5051726;28;20671;-69
2022/01/23 12:39:06;;;;;;;18.25;7.00;;;11.40;99.90;;;;;;5056466;28;20071;-70
2022/01/23 12:41:34;;;;;;;11.18;4.43;;;11.30;99.90;;;;;;5057852;28;20574;-70
2022/01/23 12:44:09;;;;;;;13.98;5.68;;;11.30;99.90;;;;;;5059536;28;20052;-70
2022/01/23 12:46:48;;;;;;;12.95;4.43;;;11.40;99.90;;;;;;5055823;28;20029;-71
2022/01/23 12:49:16;;;;;;;17.35;4.80;;;11.40;99.90;;;;;;5064994;28;20064;-69
2022/01/23 12:51:42;;;;;;;7.55;3.30;;;11.40;99.90;;;;;;5056053;28;20029;-70
2022/01/23 12:54:14;;;;;;;9.52;3.25;;;11.40;99.90;;;;;;5052468;28;20524;-70
2022/01/23 12:56:44;;;;;;;;;;;11.30;99.90;;;;;;5052990;28;20033;-70
2022/01/23 12:59:19;;;;;;;8.82;3.50;;;11.30;99.90;;;;;;5066796;28;19905;-69
2022/01/23 13:01:46;;;;;;;7.13;3.28;;;11.40;99.90;;;;;;5076002;28;20380;-69
2022/01/23 13:04:12;;;;;;;6.10;2.78;;;11.40;99.90;;;;;;5063819;28;20021;-70
2022/01/23 13:06:56;;;;;;;9.52;3.38;;;11.50;99.90;;;;;;5055767;28;20040;-70
2022/01/23 13:09:30;;;;;;;10.45;4.10;;;11.50;99.90;;;;;;5055067;28;20044;-70
2022/01/23 13:14:39;;;;;;;6.15;2.95;;;11.40;99.90;;;;;;5062228;28;20057;-70
2022/01/23 13:17:53;;;;;;;5.95;2.80;;;11.40;99.90;;;;;;5040315;28;20024;-70
2022/01/23 13:29:53;;;;;;;7.93;3.22;;;11.40;99.90;;;;;;5066340;28;20043;-70
2022/01/23 13:31:06;;;;;;;6.10;2.88;;;11.40;99.90;;;;;;5052758;28;20165;-70
2022/01/23 13:33:31;;;;;;;11.65;3.40;;;11.40;99.90;;;;;;5062835;28;20504;-70
2022/01/23 13:36:00;;;;;;;9.80;3.53;;;11.30;99.90;;;;;;5056998;28;20029;-70
2022/01/23 13:38:26;;;;;;;9.70;3.55;;;11.30;99.90;;;;;;5063765;28;20442;-71
2022/01/23 13:41:05;;;;;;;9.45;3.38;;;11.30;99.90;;;;;;5057708;28;20039;-71
2022/01/23 13:50:29;;;;;;;4.38;2.30;;;11.40;99.90;;;;;;5004501;28;20386;-70
2022/01/23 13:52:35;;;;;;;6.65;3.00;;;11.40;99.90;;;;;;5059923;28;20107;-70
2022/01/23 13:58:24;;;;;;;4.13;2.03;;;11.20;99.90;;;;;;5041033;28;20502;-71
2022/01/23 14:00:42;;;;;;;3.63;1.70;;;11.10;99.90;;;;;;5054861;28;20044;-70
2022/01/23 14:03:09;;;;;;;3.30;2.00;;;11.10;99.90;;;;;;5055937;28;20044;-70
2022/01/23 14:05:35;;;;;;;2.78;1.45;;;11.10;99.90;;;;;;5055947;28;20025;-70
2022/01/23 14:08:02;;;;;;;5.72;1.83;;;11.10;99.90;;;;;;5049890;28;20033;-70
2022/01/23 14:10:30;;;;;;;4.20;1.83;;;11.00;99.90;;;;;;5054805;28;20025;-70
2022/01/23 14:13:15;;;;;;;4.15;1.40;;;10.90;99.90;;;;;;5054314;28;20417;-70
2022/01/23 14:15:50;;;;;;;3.58;1.75;;;10.90;99.90;;;;;;5069542;28;20103;-70
2022/01/23 14:18:22;;;;;;;3.38;1.50;;;10.90;99.90;;;;;;5066253;28;20032;-70
2022/01/23 14:21:00;;;;;;;3.15;1.55;;;10.90;99.90;;;;;;5060655;28;20032;-69
2022/01/23 14:23:26;;;;;;;5.35;1.67;;;10.90;99.90;;;;;;5053912;28;20028;-69
2022/01/23 14:25:58;;;;;;;4.30;2.38;;;10.80;99.90;;;;;;5055512;28;20109;-71
2022/01/23 14:28:35;;;;;;;5.63;2.20;;;10.80;99.90;;;;;;5071125;28;20577;-70
2022/01/23 14:31:12;;;;;;;4.85;1.83;;;10.80;99.90;;;;;;5063359;28;20029;-71
2022/01/23 14:33:38;;;;;;;6.05;2.55;;;10.70;99.90;;;;;;5063620;28;20044;-71
2022/01/23 14:36:15;;;;;;;5.88;2.58;;;10.70;99.90;;;;;;5063826;28;20031;-71
2022/01/23 14:38:54;;;;;;;11.82;3.63;;;10.60;99.90;;;;;;5062537;28;20428;-70
2022/01/23 14:41:20;;;;;;;9.05;3.15;;;10.60;99.90;;;;;;5062602;28;20027;-71
2022/01/23 14:43:45;;;;;;;8.18;3.33;;;10.60;99.90;;;;;;5042611;28;20025;-70
2022/01/23 14:46:12;;;;;;;7.18;3.00;;;10.60;99.90;;;;;;5062232;28;20032;-70
2022/01/23 14:48:45;;;;;;;6.95;3.00;;;10.60;99.90;;;;;;5045188;28;20140;-70
2022/01/23 14:51:15;;;;;;;7.78;3.30;;;10.50;99.90;;;;;;5062128;28;20024;-71
2022/01/23 14:53:41;;;;;;;8.55;3.17;;;10.50;99.90;;;;;;5061861;28;20170;-69
2022/01/23 14:56:10;;;;;;;5.13;2.95;;;10.50;99.90;;;;;;5062838;28;20103;-69
2022/01/23 14:58:37;;;;;;;8.32;3.40;;;10.60;99.90;;;;;;5039414;28;20029;-69
2022/01/23 15:01:04;;;;;;;8.18;3.67;;;10.60;99.90;;;;;;5069238;28;20033;-69
2022/01/23 15:03:31;;;;;;;9.25;3.75;;;10.60;99.90;;;;;;5053167;28;20028;-69
2022/01/23 15:05:58;;;;;;;9.10;3.30;;;10.50;99.90;;;;;;5053637;28;20041;-69
2022/01/23 15:08:25;;;;;;;6.55;3.47;;;10.50;99.90;;;;;;5065441;28;20036;-69
2022/01/23 15:10:57;;;;;;;7.47;3.70;;;10.50;99.90;;;;;;5062251;28;20051;-70
2022/01/23 15:13:24;;;;;;;10.55;3.88;;;10.60;99.90;;;;;;5064422;28;20566;-70
2022/01/23 15:15:51;;;;;;;8.98;4.15;;;10.60;99.90;;;;;;5058483;28;20394;-71
2022/01/23 15:18:17;;;;;;;9.20;3.80;;;10.60;99.90;;;;;;5073353;28;20027;-70
2022/01/23 15:20:43;;;;;;;8.35;4.30;;;10.60;99.90;;;;;;5065397;28;20039;-70
2022/01/23 15:23:10;;;;;;;9.13;4.00;;;10.60;99.90;;;;;;5053578;28;20104;-72
2022/01/23 15:25:36;;;;;;;11.25;4.65;;;10.60;99.90;;;;;;5059970;28;20024;-70
2022/01/23 15:28:02;;;;;;;7.22;3.92;;;10.60;99.90;;;;;;5072272;28;20040;-70
2022/01/23 15:30:28;;;;;;;8.57;3.90;;;10.50;99.90;;;;;;5070772;28;20033;-71
2022/01/23 15:32:56;;;;;;;9.48;4.30;;;10.40;99.90;;;;;;5061703;28;20055;-69
2022/01/23 15:35:24;;;;;;;10.20;4.43;;;10.40;99.90;;;;;;5056776;28;20537;-71
2022/01/23 15:37:50;;;;;;;8.93;3.40;;;10.30;99.90;;;;;;5062626;28;20033;-69
2022/01/23 15:40:19;;;;;;;9.38;4.22;;;10.20;99.90;;;;;;5065663;28;20032;-70
2022/01/23 15:42:46;;;;;;;8.50;3.17;;;10.20;99.90;;;;;;5052089;28;20033;-72
2022/01/23 15:45:12;;;;;;;8.98;3.45;;;10.20;99.90;;;;;;5051087;28;20090;-71
2022/01/23 15:47:39;;;;;;;9.15;3.97;;;10.10;99.90;;;;;;5052482;28;20057;-70
2022/01/23 15:50:07;;;;;;;6.40;3.63;;;10.10;99.90;;;;;;5052761;28;20071;-69
2022/01/23 15:52:33;;;;;;;11.55;3.53;;;10.00;99.90;;;;;;5034122;28;20043;-72
2022/01/23 15:54:59;;;;;;;10.55;3.70;;;10.00;99.90;;;;;;5052636;28;20025;-69
2022/01/23 15:57:28;;;;;;;8.68;3.75;;;10.00;99.90;;;;;;5052504;28;20567;-70
2022/01/23 15:59:53;;;;;;;10.35;4.00;;;10.00;99.90;;;;;;5035468;28;20047;-70
2022/01/23 16:02:19;;;;;;;11.55;4.10;;;10.00;99.90;;;;;;5052479;28;20108;-70
2022/01/23 16:04:45;;;;;;;10.77;4.70;;;9.90;99.90;;;;;;5051603;28;20115;-72
2022/01/23 16:07:16;;;;;;;8.60;4.32;;;9.90;99.90;;;;;;5072836;28;20090;-69
2022/01/23 16:09:45;;;;;;;11.30;5.30;;;9.90;99.90;;;;;;5056910;28;20021;-69
2022/01/23 16:12:13;;;;;;;11.63;4.93;;;9.90;99.90;;;;;;5068107;28;20055;-71
2022/01/23 16:14:39;;;;;;;11.13;5.10;;;9.80;99.90;;;;;;5057365;28;20032;-71